Terminal Aerodrome Forecast
Issued by NWS

Home | Current Version | Previous Version | Text Only | Print | Product List | Glossary Off
Versions: 1 2 3 4 5 6 7 8 9 10 11 12 13 14 15 16 17 18 19 20

000
FTUS44 KTSA 061125
TAFFYV
TAF
KFYV 061125Z 0612/0712 19005KT P6SM SCT015 BKN040
     FM061400 19010KT P6SM BKN015
     FM061700 19012G20KT P6SM SCT025 BKN050
     FM070000 16008KT P6SM SCT050 BKN250=

USA.gov is the U.S. government's official web portal to all federal, state and local government web resources and services.